Wappapello, Missouri
Current Conditions -  °F | °C
As of 8:53 AM on Saturday 25 Oct 2014 (Local Time) from KPOF Reporting Station
Haze Haze  
Wind Chill: 60°   Ceiling: Unl
Heat Index: 60°   Visibility: 4mi
Dew Point: 55°   Wind: 3mph
Humidity: 83%   Direction: 240°WSW
Pressure: 30.06"   Gusts: NA
Location:  36.94°N, 90.27°W
Report Text: KPOF 251353Z AUTO 24003KT 4SM HZ SCT050 16/13 A3006 RMK AO2 SLP178 T01560128
Loading
Personal Weather Stations






























Interactive Weather Map
Tropical Storm Tracking
New forecast layout! Learn more

10-Day Weather Forecast

Advertisements
Track Severe Weather on mobile